sensor_id;sensor_type;location;lat;lon;timestamp;P1;durP1;ratioP1;P2;durP2;ratioP2
52742;SDS011;55583;53.012;6.556;2022-11-02T00:00:46;14.30;;;2.95;;
52742;SDS011;55583;53.012;6.556;2022-11-02T00:03:12;22.75;;;4.57;;
52742;SDS011;55583;53.012;6.556;2022-11-02T00:05:37;16.38;;;2.67;;
52742;SDS011;55583;53.012;6.556;2022-11-02T00:08:03;14.88;;;2.47;;
52742;SDS011;55583;53.012;6.556;2022-11-02T00:10:29;18.08;;;3.25;;
52742;SDS011;55583;53.012;6.556;2022-11-02T00:12:54;14.30;;;2.25;;
52742;SDS011;55583;53.012;6.556;2022-11-02T00:15:20;11.75;;;2.80;;
52742;SDS011;55583;53.012;6.556;2022-11-02T00:17:52;19.92;;;3.00;;
52742;SDS011;55583;53.012;6.556;2022-11-02T00:20:20;12.82;;;2.42;;
52742;SDS011;55583;53.012;6.556;2022-11-02T00:22:47;15.45;;;2.28;;
52742;SDS011;55583;53.012;6.556;2022-11-02T00:25:15;16.42;;;2.65;;
52742;SDS011;55583;53.012;6.556;2022-11-02T00:27:44;19.88;;;3.35;;
52742;SDS011;55583;53.012;6.556;2022-11-02T00:30:10;15.15;;;3.55;;
52742;SDS011;55583;53.012;6.556;2022-11-02T00:32:36;10.23;;;2.33;;
52742;SDS011;55583;53.012;6.556;2022-11-02T00:35:01;10.23;;;2.00;;
52742;SDS011;55583;53.012;6.556;2022-11-02T00:37:27;13.70;;;1.92;;
52742;SDS011;55583;53.012;6.556;2022-11-02T00:39:52;4.20;;;0.88;;
52742;SDS011;55583;53.012;6.556;2022-11-02T00:42:18;6.88;;;0.90;;
52742;SDS011;55583;53.012;6.556;2022-11-02T00:44:44;4.25;;;1.10;;
52742;SDS011;55583;53.012;6.556;2022-11-02T00:47:09;6.05;;;1.23;;
52742;SDS011;55583;53.012;6.556;2022-11-02T00:49:38;7.15;;;1.45;;
52742;SDS011;55583;53.012;6.556;2022-11-02T00:52:04;4.65;;;1.48;;
52742;SDS011;55583;53.012;6.556;2022-11-02T00:54:30;7.63;;;1.30;;
52742;SDS011;55583;53.012;6.556;2022-11-02T00:56:55;6.15;;;1.10;;
52742;SDS011;55583;53.012;6.556;2022-11-02T00:59:21;6.60;;;1.02;;
52742;SDS011;55583;53.012;6.556;2022-11-02T01:01:47;10.90;;;1.33;;
52742;SDS011;55583;53.012;6.556;2022-11-02T01:04:13;6.25;;;1.30;;
52742;SDS011;55583;53.012;6.556;2022-11-02T01:06:40;4.10;;;1.10;;
52742;SDS011;55583;53.012;6.556;2022-11-02T01:09:06;7.80;;;1.08;;
52742;SDS011;55583;53.012;6.556;2022-11-02T01:11:33;7.90;;;1.52;;
52742;SDS011;55583;53.012;6.556;2022-11-02T01:13:59;3.85;;;1.17;;
52742;SDS011;55583;53.012;6.556;2022-11-02T01:16:25;7.00;;;1.30;;
52742;SDS011;55583;53.012;6.556;2022-11-02T01:18:51;5.93;;;1.30;;
52742;SDS011;55583;53.012;6.556;2022-11-02T01:21:19;5.57;;;1.67;;
52742;SDS011;55583;53.012;6.556;2022-11-02T01:23:45;9.68;;;1.42;;
52742;SDS011;55583;53.012;6.556;2022-11-02T01:26:13;5.25;;;1.27;;
52742;SDS011;55583;53.012;6.556;2022-11-02T01:28:39;4.28;;;1.50;;
52742;SDS011;55583;53.012;6.556;2022-11-02T01:31:06;8.77;;;1.80;;
52742;SDS011;55583;53.012;6.556;2022-11-02T01:33:32;4.28;;;1.50;;
52742;SDS011;55583;53.012;6.556;2022-11-02T01:36:01;8.02;;;1.60;;
52742;SDS011;55583;53.012;6.556;2022-11-02T01:38:27;9.20;;;2.30;;
52742;SDS011;55583;53.012;6.556;2022-11-02T01:40:54;5.30;;;2.03;;
52742;SDS011;55583;53.012;6.556;2022-11-02T01:43:24;8.73;;;1.98;;
52742;SDS011;55583;53.012;6.556;2022-11-02T01:48:57;11.02;;;2.25;;
52742;SDS011;55583;53.012;6.556;2022-11-02T01:54:24;7.25;;;2.30;;
52742;SDS011;55583;53.012;6.556;2022-11-02T01:56:55;10.82;;;2.10;;
52742;SDS011;55583;53.012;6.556;2022-11-02T01:59:28;13.82;;;3.22;;
52742;SDS011;55583;53.012;6.556;2022-11-02T02:01:59;14.57;;;3.78;;
52742;SDS011;55583;53.012;6.556;2022-11-02T02:04:24;22.33;;;3.95;;
52742;SDS011;55583;53.012;6.556;2022-11-02T02:06:52;19.63;;;4.28;;
52742;SDS011;55583;53.012;6.556;2022-11-02T02:09:22;16.95;;;3.80;;
52742;SDS011;55583;53.012;6.556;2022-11-02T02:11:48;20.00;;;4.70;;
52742;SDS011;55583;53.012;6.556;2022-11-02T02:14:17;25.63;;;4.70;;
52742;SDS011;55583;53.012;6.556;2022-11-02T02:19:35;30.42;;;5.10;;
52742;SDS011;55583;53.012;6.556;2022-11-02T02:27:28;32.65;;;6.45;;
52742;SDS011;55583;53.012;6.556;2022-11-02T02:30:14;30.88;;;5.22;;
52742;SDS011;55583;53.012;6.556;2022-11-02T02:38:02;12.95;;;4.18;;
52742;SDS011;55583;53.012;6.556;2022-11-02T02:40:34;15.82;;;4.78;;
52742;SDS011;55583;53.012;6.556;2022-11-02T02:43:11;18.80;;;4.50;;
52742;SDS011;55583;53.012;6.556;2022-11-02T02:45:52;20.02;;;3.80;;
52742;SDS011;55583;53.012;6.556;2022-11-02T02:48:23;16.50;;;3.83;;
52742;SDS011;55583;53.012;6.556;2022-11-02T02:50:50;12.25;;;3.22;;
52742;SDS011;55583;53.012;6.556;2022-11-02T02:53:21;14.38;;;3.22;;
52742;SDS011;55583;53.012;6.556;2022-11-02T02:55:51;11.20;;;2.58;;
52742;SDS011;55583;53.012;6.556;2022-11-02T02:58:18;11.25;;;2.38;;
52742;SDS011;55583;53.012;6.556;2022-11-02T03:00:48;8.82;;;2.30;;
52742;SDS011;55583;53.012;6.556;2022-11-02T03:03:18;8.10;;;1.75;;
52742;SDS011;55583;53.012;6.556;2022-11-02T03:05:54;5.30;;;1.80;;
52742;SDS011;55583;53.012;6.556;2022-11-02T03:08:33;4.05;;;1.45;;
52742;SDS011;55583;53.012;6.556;2022-11-02T03:11:15;8.43;;;1.40;;
52742;SDS011;55583;53.012;6.556;2022-11-02T03:13:50;8.18;;;1.70;;
52742;SDS011;55583;53.012;6.556;2022-11-02T03:16:30;10.45;;;1.70;;
52742;SDS011;55583;53.012;6.556;2022-11-02T03:21:54;7.40;;;1.75;;
52742;SDS011;55583;53.012;6.556;2022-11-02T03:27:27;13.75;;;2.47;;
52742;SDS011;55583;53.012;6.556;2022-11-02T03:30:13;9.90;;;2.22;;
52742;SDS011;55583;53.012;6.556;2022-11-02T03:38:22;10.02;;;1.75;;
52742;SDS011;55583;53.012;6.556;2022-11-02T03:41:02;11.25;;;2.00;;
52742;SDS011;55583;53.012;6.556;2022-11-02T03:43:29;10.98;;;2.20;;
52742;SDS011;55583;53.012;6.556;2022-11-02T03:46:01;7.95;;;1.48;;
52742;SDS011;55583;53.012;6.556;2022-11-02T03:48:33;10.02;;;2.35;;
52742;SDS011;55583;53.012;6.556;2022-11-02T03:51:01;12.50;;;2.00;;
52742;SDS011;55583;53.012;6.556;2022-11-02T03:53:36;9.65;;;1.90;;
52742;SDS011;55583;53.012;6.556;2022-11-02T03:56:22;14.13;;;2.05;;
52742;SDS011;55583;53.012;6.556;2022-11-02T03:58:55;16.88;;;2.03;;
52742;SDS011;55583;53.012;6.556;2022-11-02T04:01:21;13.73;;;2.00;;
52742;SDS011;55583;53.012;6.556;2022-11-02T04:03:48;8.43;;;1.67;;
52742;SDS011;55583;53.012;6.556;2022-11-02T04:06:14;11.25;;;1.80;;
52742;SDS011;55583;53.012;6.556;2022-11-02T04:08:43;11.15;;;1.60;;
52742;SDS011;55583;53.012;6.556;2022-11-02T04:11:11;10.63;;;1.85;;
52742;SDS011;55583;53.012;6.556;2022-11-02T04:13:55;15.00;;;1.90;;
52742;SDS011;55583;53.012;6.556;2022-11-02T04:16:39;10.65;;;2.13;;
52742;SDS011;55583;53.012;6.556;2022-11-02T04:19:05;17.67;;;2.00;;
52742;SDS011;55583;53.012;6.556;2022-11-02T04:21:51;10.93;;;2.05;;
52742;SDS011;55583;53.012;6.556;2022-11-02T04:24:35;20.70;;;3.08;;
52742;SDS011;55583;53.012;6.556;2022-11-02T04:27:19;12.63;;;2.53;;
52742;SDS011;55583;53.012;6.556;2022-11-02T04:29:45;8.65;;;1.80;;
52742;SDS011;55583;53.012;6.556;2022-11-02T04:32:10;13.70;;;2.33;;
52742;SDS011;55583;53.012;6.556;2022-11-02T04:34:36;16.23;;;2.53;;
52742;SDS011;55583;53.012;6.556;2022-11-02T04:37:02;15.60;;;2.45;;
52742;SDS011;55583;53.012;6.556;2022-11-02T04:39:47;12.43;;;2.45;;
52742;SDS011;55583;53.012;6.556;2022-11-02T04:42:13;21.10;;;2.72;;
52742;SDS011;55583;53.012;6.556;2022-11-02T04:44:38;11.82;;;1.98;;
52742;SDS011;55583;53.012;6.556;2022-11-02T04:47:04;12.00;;;2.58;;
52742;SDS011;55583;53.012;6.556;2022-11-02T04:49:29;15.80;;;3.00;;
52742;SDS011;55583;53.012;6.556;2022-11-02T04:51:55;18.23;;;2.78;;
52742;SDS011;55583;53.012;6.556;2022-11-02T04:54:21;28.50;;;4.25;;
52742;SDS011;55583;53.012;6.556;2022-11-02T04:56:46;19.92;;;2.83;;
52742;SDS011;55583;53.012;6.556;2022-11-02T04:59:12;16.13;;;3.13;;
52742;SDS011;55583;53.012;6.556;2022-11-02T05:01:37;18.95;;;2.90;;
52742;SDS011;55583;53.012;6.556;2022-11-02T05:04:03;23.27;;;3.10;;
52742;SDS011;55583;53.012;6.556;2022-11-02T05:06:29;20.90;;;3.50;;
52742;SDS011;55583;53.012;6.556;2022-11-02T05:08:54;17.00;;;2.63;;
52742;SDS011;55583;53.012;6.556;2022-11-02T05:11:20;24.17;;;4.15;;
52742;SDS011;55583;53.012;6.556;2022-11-02T05:13:46;17.98;;;3.63;;
52742;SDS011;55583;53.012;6.556;2022-11-02T05:16:12;24.42;;;3.85;;
52742;SDS011;55583;53.012;6.556;2022-11-02T05:18:39;21.33;;;4.05;;
52742;SDS011;55583;53.012;6.556;2022-11-02T05:21:05;34.95;;;4.80;;
52742;SDS011;55583;53.012;6.556;2022-11-02T05:23:31;25.15;;;4.32;;
52742;SDS011;55583;53.012;6.556;2022-11-02T05:26:01;15.57;;;4.50;;
52742;SDS011;55583;53.012;6.556;2022-11-02T05:28:29;21.77;;;4.10;;
52742;SDS011;55583;53.012;6.556;2022-11-02T05:30:56;22.55;;;4.88;;
52742;SDS011;55583;53.012;6.556;2022-11-02T05:33:23;15.85;;;3.85;;
52742;SDS011;55583;53.012;6.556;2022-11-02T05:35:49;30.70;;;4.25;;
52742;SDS011;55583;53.012;6.556;2022-11-02T05:38:14;22.02;;;3.75;;
52742;SDS011;55583;53.012;6.556;2022-11-02T05:40:43;25.35;;;4.35;;
52742;SDS011;55583;53.012;6.556;2022-11-02T05:43:09;24.23;;;4.50;;
52742;SDS011;55583;53.012;6.556;2022-11-02T05:45:35;22.92;;;4.10;;
52742;SDS011;55583;53.012;6.556;2022-11-02T05:48:01;33.13;;;4.60;;
52742;SDS011;55583;53.012;6.556;2022-11-02T05:50:28;37.55;;;5.75;;
52742;SDS011;55583;53.012;6.556;2022-11-02T05:52:54;30.38;;;4.88;;
52742;SDS011;55583;53.012;6.556;2022-11-02T05:55:20;23.70;;;4.50;;
52742;SDS011;55583;53.012;6.556;2022-11-02T05:57:49;18.90;;;4.93;;
52742;SDS011;55583;53.012;6.556;2022-11-02T06:00:19;27.73;;;4.78;;
52742;SDS011;55583;53.012;6.556;2022-11-02T06:02:46;31.00;;;4.05;;
52742;SDS011;55583;53.012;6.556;2022-11-02T06:05:13;24.65;;;4.38;;
52742;SDS011;55583;53.012;6.556;2022-11-02T06:07:39;23.17;;;3.95;;
52742;SDS011;55583;53.012;6.556;2022-11-02T06:10:05;18.70;;;4.05;;
52742;SDS011;55583;53.012;6.556;2022-11-02T06:12:31;23.08;;;4.00;;
52742;SDS011;55583;53.012;6.556;2022-11-02T06:14:57;26.30;;;4.28;;
52742;SDS011;55583;53.012;6.556;2022-11-02T06:17:22;20.63;;;3.88;;
52742;SDS011;55583;53.012;6.556;2022-11-02T06:19:48;24.88;;;4.70;;
52742;SDS011;55583;53.012;6.556;2022-11-02T06:22:13;27.52;;;5.00;;
52742;SDS011;55583;53.012;6.556;2022-11-02T06:24:39;20.55;;;4.45;;
52742;SDS011;55583;53.012;6.556;2022-11-02T06:27:05;20.85;;;4.32;;
52742;SDS011;55583;53.012;6.556;2022-11-02T06:29:30;30.30;;;4.65;;
52742;SDS011;55583;53.012;6.556;2022-11-02T06:31:56;22.25;;;4.57;;
52742;SDS011;55583;53.012;6.556;2022-11-02T06:34:24;30.08;;;5.63;;
52742;SDS011;55583;53.012;6.556;2022-11-02T06:36:49;24.00;;;4.70;;
52742;SDS011;55583;53.012;6.556;2022-11-02T06:39:15;27.17;;;5.45;;
52742;SDS011;55583;53.012;6.556;2022-11-02T06:41:41;27.75;;;5.72;;
52742;SDS011;55583;53.012;6.556;2022-11-02T06:44:06;31.83;;;5.70;;
52742;SDS011;55583;53.012;6.556;2022-11-02T06:46:32;36.58;;;5.85;;
52742;SDS011;55583;53.012;6.556;2022-11-02T06:49:00;38.30;;;6.97;;
52742;SDS011;55583;53.012;6.556;2022-11-02T06:51:26;36.85;;;5.43;;
52742;SDS011;55583;53.012;6.556;2022-11-02T06:53:51;21.83;;;4.50;;
52742;SDS011;55583;53.012;6.556;2022-11-02T06:56:17;26.48;;;5.10;;
52742;SDS011;55583;53.012;6.556;2022-11-02T06:58:45;32.00;;;5.53;;
52742;SDS011;55583;53.012;6.556;2022-11-02T07:01:11;34.92;;;6.05;;
52742;SDS011;55583;53.012;6.556;2022-11-02T07:03:37;34.25;;;5.30;;
52742;SDS011;55583;53.012;6.556;2022-11-02T07:06:03;21.15;;;3.67;;
52742;SDS011;55583;53.012;6.556;2022-11-02T07:08:29;27.38;;;5.32;;
52742;SDS011;55583;53.012;6.556;2022-11-02T07:10:55;24.33;;;4.78;;
52742;SDS011;55583;53.012;6.556;2022-11-02T07:13:24;32.65;;;5.15;;
52742;SDS011;55583;53.012;6.556;2022-11-02T07:15:51;29.25;;;5.15;;
52742;SDS011;55583;53.012;6.556;2022-11-02T07:18:18;44.63;;;5.55;;
52742;SDS011;55583;53.012;6.556;2022-11-02T07:20:43;33.72;;;5.07;;
52742;SDS011;55583;53.012;6.556;2022-11-02T07:23:09;22.70;;;4.35;;
52742;SDS011;55583;53.012;6.556;2022-11-02T07:25:34;31.63;;;4.05;;
52742;SDS011;55583;53.012;6.556;2022-11-02T07:28:01;18.63;;;3.53;;
52742;SDS011;55583;53.012;6.556;2022-11-02T07:30:28;22.92;;;3.97;;
52742;SDS011;55583;53.012;6.556;2022-11-02T07:32:54;22.70;;;3.88;;
52742;SDS011;55583;53.012;6.556;2022-11-02T07:35:20;29.27;;;5.60;;
52742;SDS011;55583;53.012;6.556;2022-11-02T07:37:56;28.63;;;4.90;;
52742;SDS011;55583;53.012;6.556;2022-11-02T07:40:26;26.92;;;4.38;;
52742;SDS011;55583;53.012;6.556;2022-11-02T07:42:52;18.25;;;3.72;;
52742;SDS011;55583;53.012;6.556;2022-11-02T07:45:19;23.95;;;4.50;;
52742;SDS011;55583;53.012;6.556;2022-11-02T07:47:46;29.88;;;4.75;;
52742;SDS011;55583;53.012;6.556;2022-11-02T07:50:12;20.08;;;4.28;;
52742;SDS011;55583;53.012;6.556;2022-11-02T07:52:45;25.95;;;3.45;;
52742;SDS011;55583;53.012;6.556;2022-11-02T07:55:13;27.83;;;3.75;;
52742;SDS011;55583;53.012;6.556;2022-11-02T07:57:39;31.13;;;4.38;;
52742;SDS011;55583;53.012;6.556;2022-11-02T08:00:07;20.05;;;4.90;;
52742;SDS011;55583;53.012;6.556;2022-11-02T08:02:34;13.75;;;3.40;;
52742;SDS011;55583;53.012;6.556;2022-11-02T08:05:00;24.88;;;3.53;;
52742;SDS011;55583;53.012;6.556;2022-11-02T08:07:25;18.05;;;3.53;;
52742;SDS011;55583;53.012;6.556;2022-11-02T08:09:51;17.25;;;2.97;;
52742;SDS011;55583;53.012;6.556;2022-11-02T08:12:16;17.45;;;2.45;;
52742;SDS011;55583;53.012;6.556;2022-11-02T08:14:42;14.63;;;2.67;;
52742;SDS011;55583;53.012;6.556;2022-11-02T08:17:08;20.85;;;2.53;;
52742;SDS011;55583;53.012;6.556;2022-11-02T08:19:34;22.13;;;3.22;;
52742;SDS011;55583;53.012;6.556;2022-11-02T08:21:59;14.63;;;2.30;;
52742;SDS011;55583;53.012;6.556;2022-11-02T08:24:25;13.60;;;2.42;;
52742;SDS011;55583;53.012;6.556;2022-11-02T08:26:50;18.35;;;2.80;;
52742;SDS011;55583;53.012;6.556;2022-11-02T08:29:16;19.38;;;2.20;;
52742;SDS011;55583;53.012;6.556;2022-11-02T08:31:41;23.23;;;2.97;;
52742;SDS011;55583;53.012;6.556;2022-11-02T08:34:08;8.25;;;2.05;;
52742;SDS011;55583;53.012;6.556;2022-11-02T08:36:35;16.20;;;2.42;;
52742;SDS011;55583;53.012;6.556;2022-11-02T08:39:01;11.70;;;1.90;;
52742;SDS011;55583;53.012;6.556;2022-11-02T08:41:27;11.40;;;2.05;;
52742;SDS011;55583;53.012;6.556;2022-11-02T08:43:53;15.43;;;2.10;;
52742;SDS011;55583;53.012;6.556;2022-11-02T08:46:18;13.05;;;2.30;;
52742;SDS011;55583;53.012;6.556;2022-11-02T08:48:44;13.30;;;2.42;;
52742;SDS011;55583;53.012;6.556;2022-11-02T08:51:12;14.13;;;2.63;;
52742;SDS011;55583;53.012;6.556;2022-11-02T08:53:38;11.32;;;2.35;;
52742;SDS011;55583;53.012;6.556;2022-11-02T08:56:04;22.30;;;2.75;;
52742;SDS011;55583;53.012;6.556;2022-11-02T08:58:29;12.57;;;2.33;;
52742;SDS011;55583;53.012;6.556;2022-11-02T09:00:55;9.32;;;2.22;;
52742;SDS011;55583;53.012;6.556;2022-11-02T09:03:21;12.20;;;2.05;;
52742;SDS011;55583;53.012;6.556;2022-11-02T09:05:48;10.32;;;1.88;;
52742;SDS011;55583;53.012;6.556;2022-11-02T09:08:18;13.82;;;2.45;;
52742;SDS011;55583;53.012;6.556;2022-11-02T09:10:46;10.55;;;1.83;;
52742;SDS011;55583;53.012;6.556;2022-11-02T09:13:14;8.52;;;1.58;;
52742;SDS011;55583;53.012;6.556;2022-11-02T09:15:49;13.27;;;2.72;;
52742;SDS011;55583;53.012;6.556;2022-11-02T09:18:17;8.35;;;1.90;;
52742;SDS011;55583;53.012;6.556;2022-11-02T09:20:42;8.73;;;1.55;;
52742;SDS011;55583;53.012;6.556;2022-11-02T09:23:08;17.65;;;2.33;;
52742;SDS011;55583;53.012;6.556;2022-11-02T09:25:34;11.15;;;1.90;;
52742;SDS011;55583;53.012;6.556;2022-11-02T09:28:02;14.40;;;2.25;;
52742;SDS011;55583;53.012;6.556;2022-11-02T09:30:27;13.05;;;2.08;;
52742;SDS011;55583;53.012;6.556;2022-11-02T09:32:54;10.10;;;1.88;;
52742;SDS011;55583;53.012;6.556;2022-11-02T09:35:25;9.10;;;2.45;;
52742;SDS011;55583;53.012;6.556;2022-11-02T09:37:52;11.68;;;2.88;;
52742;SDS011;55583;53.012;6.556;2022-11-02T09:40:22;7.05;;;1.65;;
52742;SDS011;55583;53.012;6.556;2022-11-02T09:45:22;8.27;;;1.67;;
52742;SDS011;55583;53.012;6.556;2022-11-02T09:48:04;12.50;;;2.20;;
52742;SDS011;55583;53.012;6.556;2022-11-02T09:50:41;6.55;;;1.92;;
52742;SDS011;55583;53.012;6.556;2022-11-02T09:53:13;8.13;;;2.15;;
52742;SDS011;55583;53.012;6.556;2022-11-02T09:55:51;11.25;;;2.00;;
52742;SDS011;55583;53.012;6.556;2022-11-02T09:58:22;21.20;;;3.72;;
52742;SDS011;55583;53.012;6.556;2022-11-02T10:00:54;12.85;;;1.88;;
52742;SDS011;55583;53.012;6.556;2022-11-02T10:03:42;12.07;;;2.13;;
52742;SDS011;55583;53.012;6.556;2022-11-02T10:06:22;13.02;;;2.13;;
52742;SDS011;55583;53.012;6.556;2022-11-02T10:11:51;11.77;;;1.85;;
52742;SDS011;55583;53.012;6.556;2022-11-02T10:14:30;12.10;;;2.58;;
52742;SDS011;55583;53.012;6.556;2022-11-02T10:19:43;13.23;;;3.35;;
52742;SDS011;55583;53.012;6.556;2022-11-02T10:22:16;8.93;;;1.80;;
52742;SDS011;55583;53.012;6.556;2022-11-02T10:24:42;11.65;;;2.05;;
52742;SDS011;55583;53.012;6.556;2022-11-02T10:27:25;9.10;;;2.20;;
52742;SDS011;55583;53.012;6.556;2022-11-02T10:29:56;9.02;;;2.08;;
52742;SDS011;55583;53.012;6.556;2022-11-02T10:32:32;10.30;;;2.20;;
52742;SDS011;55583;53.012;6.556;2022-11-02T10:35:03;14.18;;;2.55;;
52742;SDS011;55583;53.012;6.556;2022-11-02T10:46:31;9.80;;;2.10;;
52742;SDS011;55583;53.012;6.556;2022-11-02T10:49:12;17.70;;;2.70;;
52742;SDS011;55583;53.012;6.556;2022-11-02T10:51:56;12.38;;;2.25;;
52742;SDS011;55583;53.012;6.556;2022-11-02T10:54:22;12.77;;;2.95;;
52742;SDS011;55583;53.012;6.556;2022-11-02T10:56:50;17.55;;;2.20;;
52742;SDS011;55583;53.012;6.556;2022-11-02T10:59:17;15.27;;;3.00;;
52742;SDS011;55583;53.012;6.556;2022-11-02T11:01:45;9.95;;;2.42;;
52742;SDS011;55583;53.012;6.556;2022-11-02T11:04:31;12.85;;;2.47;;
52742;SDS011;55583;53.012;6.556;2022-11-02T11:07:03;10.50;;;2.30;;
52742;SDS011;55583;53.012;6.556;2022-11-02T11:09:47;16.27;;;2.25;;
52742;SDS011;55583;53.012;6.556;2022-11-02T11:14:54;6.20;;;1.92;;
52742;SDS011;55583;53.012;6.556;2022-11-02T11:17:28;13.10;;;3.20;;
52742;SDS011;55583;53.012;6.556;2022-11-02T11:19:58;7.35;;;1.75;;
52742;SDS011;55583;53.012;6.556;2022-11-02T11:22:25;10.15;;;1.80;;
52742;SDS011;55583;53.012;6.556;2022-11-02T11:27:51;9.63;;;2.28;;
52742;SDS011;55583;53.012;6.556;2022-11-02T11:32:54;6.70;;;1.60;;
52742;SDS011;55583;53.012;6.556;2022-11-02T11:35:21;5.72;;;1.38;;
52742;SDS011;55583;53.012;6.556;2022-11-02T11:40:19;7.82;;;2.08;;
52742;SDS011;55583;53.012;6.556;2022-11-02T11:42:46;7.70;;;1.63;;
52742;SDS011;55583;53.012;6.556;2022-11-02T11:45:26;8.85;;;1.90;;
52742;SDS011;55583;53.012;6.556;2022-11-02T11:47:54;5.57;;;1.83;;
52742;SDS011;55583;53.012;6.556;2022-11-02T11:50:34;11.32;;;1.77;;
52742;SDS011;55583;53.012;6.556;2022-11-02T11:55:48;9.43;;;1.92;;
52742;SDS011;55583;53.012;6.556;2022-11-02T11:58:20;7.93;;;2.05;;
52742;SDS011;55583;53.012;6.556;2022-11-02T12:11:48;10.85;;;1.90;;
52742;SDS011;55583;53.012;6.556;2022-11-02T12:14:25;8.07;;;1.58;;
52742;SDS011;55583;53.012;6.556;2022-11-02T12:17:21;10.25;;;1.90;;
52742;SDS011;55583;53.012;6.556;2022-11-02T12:20:14;16.73;;;2.28;;
52742;SDS011;55583;53.012;6.556;2022-11-02T12:25:49;14.25;;;2.38;;
52742;SDS011;55583;53.012;6.556;2022-11-02T12:28:58;9.07;;;1.77;;
52742;SDS011;55583;53.012;6.556;2022-11-02T12:31:38;9.90;;;1.67;;
52742;SDS011;55583;53.012;6.556;2022-11-02T12:50:11;9.13;;;1.75;;
52742;SDS011;55583;53.012;6.556;2022-11-02T12:53:17;13.30;;;2.20;;
52742;SDS011;55583;53.012;6.556;2022-11-02T12:55:55;13.98;;;2.10;;
52742;SDS011;55583;53.012;6.556;2022-11-02T12:58:28;12.27;;;1.88;;
52742;SDS011;55583;53.012;6.556;2022-11-02T13:00:59;12.32;;;2.33;;
52742;SDS011;55583;53.012;6.556;2022-11-02T13:06:29;15.55;;;2.88;;
52742;SDS011;55583;53.012;6.556;2022-11-02T13:09:04;14.37;;;2.50;;
52742;SDS011;55583;53.012;6.556;2022-11-02T13:11:41;9.77;;;2.17;;
52742;SDS011;55583;53.012;6.556;2022-11-02T13:14:13;14.05;;;3.08;;
52742;SDS011;55583;53.012;6.556;2022-11-02T13:19:13;15.88;;;3.35;;
52742;SDS011;55583;53.012;6.556;2022-11-02T13:21:45;15.27;;;2.75;;
52742;SDS011;55583;53.012;6.556;2022-11-02T13:24:15;8.40;;;2.05;;
52742;SDS011;55583;53.012;6.556;2022-11-02T13:26:46;15.77;;;1.95;;
52742;SDS011;55583;53.012;6.556;2022-11-02T13:29:16;11.32;;;2.30;;
52742;SDS011;55583;53.012;6.556;2022-11-02T13:31:44;11.45;;;2.45;;
52742;SDS011;55583;53.012;6.556;2022-11-02T13:34:40;11.95;;;2.60;;
52742;SDS011;55583;53.012;6.556;2022-11-02T13:37:41;10.65;;;2.45;;
52742;SDS011;55583;53.012;6.556;2022-11-02T13:40:05;13.52;;;2.28;;
52742;SDS011;55583;53.012;6.556;2022-11-02T13:45:49;16.95;;;2.00;;
52742;SDS011;55583;53.012;6.556;2022-11-02T13:51:36;17.60;;;2.47;;
52742;SDS011;55583;53.012;6.556;2022-11-02T13:54:33;12.68;;;2.67;;
52742;SDS011;55583;53.012;6.556;2022-11-02T14:02:49;14.95;;;2.60;;
52742;SDS011;55583;53.012;6.556;2022-11-02T14:05:31;6.38;;;2.03;;
52742;SDS011;55583;53.012;6.556;2022-11-02T14:08:03;18.80;;;2.90;;
52742;SDS011;55583;53.012;6.556;2022-11-02T14:10:35;10.48;;;2.00;;
52742;SDS011;55583;53.012;6.556;2022-11-02T14:13:12;16.80;;;2.90;;
52742;SDS011;55583;53.012;6.556;2022-11-02T14:15:39;20.00;;;2.20;;
52742;SDS011;55583;53.012;6.556;2022-11-02T14:18:10;15.73;;;2.10;;
52742;SDS011;55583;53.012;6.556;2022-11-02T14:20:38;21.88;;;3.08;;
52742;SDS011;55583;53.012;6.556;2022-11-02T14:25:47;17.30;;;2.55;;
52742;SDS011;55583;53.012;6.556;2022-11-02T14:30:46;13.15;;;2.45;;
52742;SDS011;55583;53.012;6.556;2022-11-02T14:33:17;8.27;;;2.47;;
52742;SDS011;55583;53.012;6.556;2022-11-02T14:36:09;19.13;;;2.35;;
52742;SDS011;55583;53.012;6.556;2022-11-02T14:44:59;6.63;;;1.45;;
52742;SDS011;55583;53.012;6.556;2022-11-02T14:47:29;12.70;;;3.00;;
52742;SDS011;55583;53.012;6.556;2022-11-02T14:52:35;9.73;;;2.30;;
52742;SDS011;55583;53.012;6.556;2022-11-02T14:55:07;11.18;;;2.10;;
52742;SDS011;55583;53.012;6.556;2022-11-02T15:00:20;15.20;;;2.70;;
52742;SDS011;55583;53.012;6.556;2022-11-02T15:03:12;13.13;;;2.50;;
52742;SDS011;55583;53.012;6.556;2022-11-02T15:08:25;14.27;;;2.50;;
52742;SDS011;55583;53.012;6.556;2022-11-02T15:10:55;14.30;;;2.53;;
52742;SDS011;55583;53.012;6.556;2022-11-02T15:13:22;18.73;;;3.25;;
52742;SDS011;55583;53.012;6.556;2022-11-02T15:24:20;12.10;;;2.72;;
52742;SDS011;55583;53.012;6.556;2022-11-02T15:32:02;16.83;;;3.97;;
52742;SDS011;55583;53.012;6.556;2022-11-02T15:37:02;16.38;;;4.93;;
52742;SDS011;55583;53.012;6.556;2022-11-02T15:39:29;20.02;;;5.15;;
52742;SDS011;55583;53.012;6.556;2022-11-02T15:42:03;16.98;;;4.47;;
52742;SDS011;55583;53.012;6.556;2022-11-02T16:01:46;14.85;;;3.30;;
52742;SDS011;55583;53.012;6.556;2022-11-02T16:04:47;9.98;;;2.65;;
52742;SDS011;55583;53.012;6.556;2022-11-02T16:07:15;13.88;;;3.75;;
52742;SDS011;55583;53.012;6.556;2022-11-02T16:09:42;15.00;;;4.00;;
52742;SDS011;55583;53.012;6.556;2022-11-02T16:12:15;15.15;;;3.47;;
52742;SDS011;55583;53.012;6.556;2022-11-02T16:14:42;15.20;;;3.38;;
52742;SDS011;55583;53.012;6.556;2022-11-02T16:17:23;10.85;;;3.10;;
52742;SDS011;55583;53.012;6.556;2022-11-02T16:22:47;14.20;;;3.67;;
52742;SDS011;55583;53.012;6.556;2022-11-02T16:25:41;16.83;;;3.53;;
52742;SDS011;55583;53.012;6.556;2022-11-02T16:34:32;13.73;;;3.60;;
52742;SDS011;55583;53.012;6.556;2022-11-02T16:36:35;21.02;;;3.40;;
52742;SDS011;55583;53.012;6.556;2022-11-02T16:41:52;24.45;;;3.60;;
52742;SDS011;55583;53.012;6.556;2022-11-02T16:44:28;21.15;;;3.85;;
52742;SDS011;55583;53.012;6.556;2022-11-02T16:47:38;13.65;;;3.25;;
52742;SDS011;55583;53.012;6.556;2022-11-02T16:52:20;20.85;;;4.55;;
52742;SDS011;55583;53.012;6.556;2022-11-02T16:54:57;16.35;;;2.60;;
52742;SDS011;55583;53.012;6.556;2022-11-02T16:57:24;23.60;;;3.40;;
52742;SDS011;55583;53.012;6.556;2022-11-02T16:59:56;9.48;;;2.60;;
52742;SDS011;55583;53.012;6.556;2022-11-02T17:05:03;19.17;;;3.78;;
52742;SDS011;55583;53.012;6.556;2022-11-02T17:07:38;8.90;;;2.22;;
52742;SDS011;55583;53.012;6.556;2022-11-02T17:10:06;16.23;;;3.00;;
52742;SDS011;55583;53.012;6.556;2022-11-02T17:12:34;13.07;;;3.13;;
52742;SDS011;55583;53.012;6.556;2022-11-02T17:15:03;12.93;;;2.88;;
52742;SDS011;55583;53.012;6.556;2022-11-02T17:17:40;12.80;;;2.78;;
52742;SDS011;55583;53.012;6.556;2022-11-02T17:22:53;17.23;;;2.78;;
52742;SDS011;55583;53.012;6.556;2022-11-02T17:25:28;17.20;;;3.83;;
52742;SDS011;55583;53.012;6.556;2022-11-02T17:27:59;22.52;;;5.38;;
52742;SDS011;55583;53.012;6.556;2022-11-02T17:30:48;13.63;;;3.80;;
52742;SDS011;55583;53.012;6.556;2022-11-02T17:35:52;12.25;;;3.17;;
52742;SDS011;55583;53.012;6.556;2022-11-02T17:38:21;12.40;;;3.00;;
52742;SDS011;55583;53.012;6.556;2022-11-02T17:40:49;16.52;;;2.95;;
52742;SDS011;55583;53.012;6.556;2022-11-02T17:43:19;17.73;;;3.70;;
52742;SDS011;55583;53.012;6.556;2022-11-02T17:45:52;15.80;;;3.88;;
52742;SDS011;55583;53.012;6.556;2022-11-02T17:48:18;14.98;;;3.13;;
52742;SDS011;55583;53.012;6.556;2022-11-02T17:50:44;23.10;;;3.58;;
52742;SDS011;55583;53.012;6.556;2022-11-02T17:53:10;18.92;;;4.00;;
52742;SDS011;55583;53.012;6.556;2022-11-02T17:55:37;18.80;;;3.40;;
52742;SDS011;55583;53.012;6.556;2022-11-02T17:58:04;8.10;;;3.00;;
52742;SDS011;55583;53.012;6.556;2022-11-02T18:00:31;18.05;;;3.38;;